Happy Valentine's Day! 

Flight Track Log - Related Links

Times and Time Zones

All times are in EDT time to prevent confusion due to time zone crossing. See the N143DE flight status page for this flight to view local times or setup timezone preferences in your user account.


Time Position Orientation Groundspeed Altitude Reporting Facility
EDT Latitude Longitude Course Direction KTS MPH feet Rate Location/Type
Wed 10:40:59 AM 33.8667 -84.3333 North 176 203 2,700  Level Atlanta TRACON
Wed 10:41:59 AM 33.9167 -84.3667 331° Northwest 200 230 4,100 1,513 Climbing Atlanta TRACON
Wed 10:42:54 AM 33.9667 -84.3500 15° North 201 231 5,600 1,565 Climbing Atlanta TRACON
Wed 10:43:54 AM 34.0167 -84.3500 360° North 209 241 7,100 1,200 Climbing Atlanta TRACON
Wed 10:44:54 AM 34.0833 -84.3500 360° North 224 258 8,000 950 Climbing Atlanta TRACON
Wed 10:45:54 AM 34.1500 -84.3333 12° North 227 261 9,000 957 Climbing Atlanta TRACON
Wed 10:46:00 AM 34.1752 -84.3000 North  Level FlightAware Approximate
Wed 10:47:12 AM 34.2197 -84.3253 North 246 283 10,200  Level Atlanta Center
Wed 10:48:12 AM 34.2822 -84.3178 North 235 270 10,900 600 Climbing Atlanta Center
Wed 10:49:12 AM 34.3553 -84.3056 North 235 270 11,400 1,100 Climbing Atlanta Center
Wed 10:50:12 AM 34.4158 -84.2956 North 235 270 13,100 1,650 Climbing Atlanta Center
Wed 10:51:12 AM 34.4681 -84.2856 North 212 244 14,700 1,450 Climbing Atlanta Center
Wed 10:52:12 AM 34.5244 -84.2758 North 200 230 16,000 1,400 Climbing Atlanta Center
Wed 10:53:12 AM 34.5664 -84.2406 35° Northeast 187 215 17,500 1,150 Climbing Atlanta Center
Wed 10:54:12 AM 34.6103 -84.2053 33° Northeast 182 209 18,300 750 Climbing Atlanta Center
Wed 10:55:12 AM 34.6561 -84.1650 36° Northeast 187 215 19,000 400 Climbing Atlanta Center
Wed 10:56:12 AM 34.7022 -84.1247 36° Northeast 199 229 19,100 50 Climbing Atlanta Center
Wed 10:57:12 AM 34.7583 -84.0767 35° Northeast 226 260 19,100  Level Atlanta Center
Wed 10:58:12 AM 34.8147 -84.0311 34° Northeast 239 275 19,100 -50 Level Atlanta Center
Wed 10:59:12 AM 34.8733 -83.9781 37° Northeast 245 282 19,000 -50 Descending Atlanta Center
Wed 11:00:12 AM 34.9294 -83.9297 35° Northeast 245 282 19,000  Level Atlanta Center
Wed 11:01:12 AM 34.9836 -83.8792 37° Northeast 245 282 19,000  Level Atlanta Center
Wed 11:02:12 AM 35.0400 -83.8181 42° Northeast 251 289 19,000  Level Atlanta Center
Wed 11:03:12 AM 35.0983 -83.7594 39° Northeast 256 295 19,000  Level Atlanta Center
Wed 11:04:12 AM 35.1567 -83.7008 39° Northeast 261 300 19,000  Level Atlanta Center
Wed 11:05:12 AM 35.2147 -83.6422 40° Northeast 266 306 19,000 -350 Level Atlanta Center
Wed 11:06:12 AM 35.2750 -83.5808 40° Northeast 266 306 18,300 -650 Descending Atlanta Center
Wed 11:07:12 AM 35.3353 -83.5169 41° Northeast 277 319 17,700 -650 Descending Atlanta Center
Wed 11:08:12 AM 35.3978 -83.4553 39° Northeast 277 319 17,000 -350 Descending Atlanta Center
Wed 11:09:12 AM 35.4558 -83.3989 38° Northeast 277 319 17,000  Level Atlanta Center
Wed 11:10:12 AM 35.5078 -83.3447 40° Northeast 270 311 17,000  Level Atlanta Center
Wed 11:11:12 AM 35.5636 -83.2883 39° Northeast 258 297 17,000  Level Atlanta Center
Wed 11:12:12 AM 35.6156 -83.2342 40° Northeast 252 290 17,000 50 Level Atlanta Center
Wed 11:13:12 AM 35.6733 -83.1694 42° Northeast 252 290 17,100 -200 Climbing Atlanta Center
Wed 11:14:12 AM 35.7272 -83.1153 39° Northeast 247 284 16,600 -700 Descending Atlanta Center
Wed 11:15:12 AM 35.7831 -83.0583 40° Northeast 256 295 15,700 -800 Descending Atlanta Center
Wed 11:16:12 AM 35.8347 -82.9886 48° Northeast 256 295 15,000 -800 Descending Atlanta Center
Wed 11:17:12 AM 35.8842 -82.9161 50° Northeast 261 300 14,100 -900 Descending Atlanta Center
Wed 11:18:12 AM 35.9336 -82.8489 48° Northeast 266 306 13,200 -800 Descending Atlanta Center
Wed 11:19:12 AM 35.9831 -82.7814 48° Northeast 266 306 12,500 -750 Descending Atlanta Center
Wed 11:20:12 AM 36.0303 -82.7114 50° Northeast 266 306 11,700 -1,050 Descending Atlanta Center
Wed 11:21:12 AM 36.0794 -82.6411 49° Northeast 268 308 10,400 -1,250 Descending Atlanta Center
Wed 11:22:12 AM 36.1308 -82.5708 48° Northeast 268 308 9,200 -1,250 Descending Atlanta Center
Wed 11:23:12 AM 36.1886 -82.5208 35° Northeast 257 296 7,900 -1,100 Descending Atlanta Center
Wed 11:24:12 AM 36.2528 -82.4811 27° Northeast 251 289 7,000 -450 Descending Atlanta Center
Wed 11:25:12 AM 36.3106 -82.4414 29° Northeast 236 272 7,000 -400 Level Atlanta Center
Wed 11:26:12 AM 36.3622 -82.4067 28° Northeast 223 257 6,200 -800 Descending Atlanta Center
Wed 11:28:00 AM 36.4752 -82.4074 48° Northeast  Level Estimated
Wed 11:35:00 AM 36.4752 -82.4074 270° West  Level Estimated
Wed 11:36:00 AM 36.4752 -82.4074 270° West  Level Estimated
Wed 11:37:00 AM 36.4752 -82.4074 270° West  Level Estimated
Wed 11:38:00 AM 36.4752 -82.4074 270° West  Level Estimated
Wed 11:39:00 AM 36.4752 -82.4074 270° West  Level Estimated

Login

Don't have an account? Register now (free) for customized features, flight alerts, and more!